createdAt,value
2023-02-28T00:00:27.080Z,100616.84
2023-02-28T00:03:14.220Z,100610.72
2023-02-28T00:05:42.481Z,100610.88
2023-02-28T00:08:09.613Z,100616.47
2023-02-28T00:10:37.129Z,100620.41
2023-02-28T00:13:06.120Z,100622.78
2023-02-28T00:15:34.172Z,100625.06
2023-02-28T00:18:01.131Z,100619.19
2023-02-28T00:20:29.102Z,100626.53
2023-02-28T00:22:56.303Z,100619.97
2023-02-28T00:25:24.641Z,100627.28
2023-02-28T00:27:54.509Z,100623.41
2023-02-28T00:30:25.038Z,100627.22
2023-02-28T00:32:52.222Z,100625.69
2023-02-28T00:35:19.459Z,100625.69
2023-02-28T00:37:46.482Z,100621.41
2023-02-28T00:40:13.726Z,100628.59
2023-02-28T00:42:41.289Z,100631.63
2023-02-28T00:45:09.449Z,100631.56
2023-02-28T00:47:38.697Z,100636.25
2023-02-28T00:50:06.581Z,100626.88
2023-02-28T00:52:33.465Z,100627.59
2023-02-28T00:55:00.661Z,100625.22
2023-02-28T00:57:27.797Z,100630.66
2023-02-28T00:59:58.108Z,100624.09
2023-02-28T01:02:25.270Z,100626.38
2023-02-28T01:04:54.878Z,100623.66
2023-02-28T01:07:21.922Z,100629.78
2023-02-28T01:09:49.486Z,100630.91
2023-02-28T01:12:16.488Z,100628.03
2023-02-28T01:14:46.615Z,100636.50
2023-02-28T01:17:13.590Z,100625.88
2023-02-28T01:19:40.793Z,100629.81
2023-02-28T01:22:07.747Z,100626.41
2023-02-28T01:24:35.982Z,100623.25
2023-02-28T01:27:03.294Z,100620.94
2023-02-28T01:29:30.551Z,100627.94
2023-02-28T01:31:58.256Z,100630.25
2023-02-28T01:34:25.487Z,100629.38
2023-02-28T01:36:54.949Z,100625.81
2023-02-28T01:39:24.746Z,100634.47
2023-02-28T01:41:51.622Z,100637.97
2023-02-28T01:44:38.018Z,100626.31
2023-02-28T01:47:05.000Z,100629.13
2023-02-28T01:49:32.528Z,100627.16
2023-02-28T01:51:59.506Z,100630.66
2023-02-28T01:54:31.899Z,100638.84
2023-02-28T01:57:19.573Z,100638.84
2023-02-28T01:59:51.476Z,100634.56
2023-02-28T02:02:19.828Z,100635.00
2023-02-28T02:04:52.694Z,100625.31
2023-02-28T02:07:22.634Z,100627.34
2023-02-28T02:09:50.132Z,100633.56
2023-02-28T02:12:37.241Z,100635.16
2023-02-28T02:15:04.495Z,100635.94
2023-02-28T02:17:31.523Z,100645.69
2023-02-28T02:20:07.175Z,100642.53
2023-02-28T02:22:59.122Z,100642.91
2023-02-28T02:25:29.301Z,100644.91
2023-02-28T02:27:56.135Z,100644.44
2023-02-28T02:30:43.589Z,100634.38
2023-02-28T02:33:28.944Z,100634.47
2023-02-28T02:36:05.454Z,100637.25
2023-02-28T02:38:32.579Z,100638.91
2023-02-28T02:41:08.114Z,100647.06
2023-02-28T02:43:58.380Z,100647.81
2023-02-28T02:46:30.346Z,100645.59
2023-02-28T02:49:01.419Z,100645.59
2023-02-28T02:51:29.666Z,100646.78
2023-02-28T02:54:03.014Z,100638.88
2023-02-28T02:56:32.902Z,100639.63
2023-02-28T02:59:08.990Z,100635.53
2023-02-28T03:01:38.345Z,100631.72
2023-02-28T03:04:10.853Z,100634.94
2023-02-28T03:06:39.249Z,100634.22
2023-02-28T03:09:06.120Z,100640.09
2023-02-28T03:11:33.999Z,100637.81
2023-02-28T03:14:04.014Z,100636.31
2023-02-28T03:16:55.395Z,100632.09
2023-02-28T03:19:22.369Z,100629.44
2023-02-28T03:22:08.379Z,100637.25
2023-02-28T03:24:44.748Z,100625.66
2023-02-28T03:27:15.585Z,100631.47
2023-02-28T03:29:45.658Z,100632.66
2023-02-28T03:32:22.511Z,100632.66
2023-02-28T03:34:59.041Z,100626.44
2023-02-28T03:37:27.329Z,100627.72
2023-02-28T03:40:01.922Z,100630.44
2023-02-28T03:42:31.025Z,100620.53
2023-02-28T03:45:12.009Z,100611.75
2023-02-28T03:48:08.641Z,100613.84
2023-02-28T03:50:35.517Z,100620.13
2023-02-28T03:53:05.995Z,100624.94
2023-02-28T03:55:36.622Z,100627.28
2023-02-28T03:58:15.859Z,100627.41
2023-02-28T04:00:47.500Z,100625.19
2023-02-28T04:03:15.051Z,100619.41
2023-02-28T04:05:52.710Z,100622.59
2023-02-28T04:08:19.966Z,100624.69
2023-02-28T04:10:50.397Z,100620.84
2023-02-28T04:13:17.531Z,100621.69
2023-02-28T04:15:44.444Z,100617.06
2023-02-28T04:18:11.625Z,100621.75
2023-02-28T04:20:38.475Z,100625.09
2023-02-28T04:23:05.560Z,100624.75
2023-02-28T04:25:32.371Z,100630.16
2023-02-28T04:28:01.739Z,100627.88
2023-02-28T04:30:28.584Z,100636.84
2023-02-28T04:32:55.897Z,100631.84
2023-02-28T04:35:22.800Z,100631.06
2023-02-28T04:37:52.456Z,100634.56
2023-02-28T04:40:19.344Z,100642.72
2023-02-28T04:42:46.578Z,100632.88
2023-02-28T04:45:13.559Z,100635.97
2023-02-28T04:47:40.723Z,100637.38
2023-02-28T04:50:07.961Z,100637.25
2023-02-28T04:52:35.397Z,100643.03
2023-02-28T04:55:02.799Z,100637.94
2023-02-28T04:57:31.128Z,100641.06
2023-02-28T04:59:58.245Z,100638.78
2023-02-28T05:02:30.308Z,100644.28
2023-02-28T05:04:57.202Z,100639.31
2023-02-28T05:07:24.430Z,100645.25
2023-02-28T05:09:51.325Z,100630.66
2023-02-28T05:12:18.522Z,100625.69
2023-02-28T05:14:45.434Z,100623.88
2023-02-28T05:17:12.682Z,100631.78
2023-02-28T05:19:39.630Z,100632.69
2023-02-28T05:22:13.828Z,100638.66
2023-02-28T05:24:43.402Z,100634.50
2023-02-28T05:27:11.234Z,100634.53
2023-02-28T05:29:42.708Z,100636.56
2023-02-28T05:32:12.848Z,100637.78
2023-02-28T05:34:40.281Z,100643.25
2023-02-28T05:37:07.970Z,100637.78
2023-02-28T05:39:34.846Z,100642.84
2023-02-28T05:42:02.140Z,100644.88
2023-02-28T05:44:29.338Z,100652.22
2023-02-28T05:46:56.532Z,100659.13
2023-02-28T05:49:25.667Z,100660.72
2023-02-28T05:51:52.887Z,100660.72
2023-02-28T05:54:19.902Z,100656.03
2023-02-28T05:56:47.250Z,100665.69
2023-02-28T05:59:14.430Z,100666.06
2023-02-28T06:01:49.374Z,100666.00
2023-02-28T06:04:31.146Z,100666.31
2023-02-28T06:06:59.454Z,100668.56
2023-02-28T06:09:26.333Z,100670.44
2023-02-28T06:11:53.862Z,100677.63
2023-02-28T06:14:21.458Z,100671.97
2023-02-28T06:16:48.946Z,100676.94
2023-02-28T06:19:16.572Z,100681.44
2023-02-28T06:21:44.294Z,100680.13
2023-02-28T06:24:11.430Z,100685.03
2023-02-28T06:26:38.596Z,100682.47
2023-02-28T06:29:05.512Z,100681.63
2023-02-28T06:31:33.866Z,100679.97
2023-02-28T06:34:01.056Z,100682.91
2023-02-28T06:36:28.795Z,100688.22
2023-02-28T06:38:57.145Z,100683.41
2023-02-28T06:41:26.041Z,100690.03
2023-02-28T06:43:53.396Z,100693.34
2023-02-28T06:46:21.549Z,100702.09
2023-02-28T06:48:48.622Z,100713.16
2023-02-28T06:51:21.370Z,100704.72
2023-02-28T06:53:48.314Z,100710.38
2023-02-28T06:56:16.367Z,100709.38
2023-02-28T06:58:43.448Z,100711.38
2023-02-28T07:01:10.623Z,100719.09
2023-02-28T07:03:37.674Z,100714.88
2023-02-28T07:06:07.873Z,100719.25
2023-02-28T07:08:35.402Z,100722.22
2023-02-28T07:11:02.954Z,100717.44
2023-02-28T07:13:29.891Z,100719.66
2023-02-28T07:15:58.478Z,100709.72
2023-02-28T07:18:27.895Z,100721.13
2023-02-28T07:20:55.157Z,100720.34
2023-02-28T07:23:22.396Z,100722.75
2023-02-28T07:25:50.696Z,100725.81
2023-02-28T07:28:17.972Z,100726.81
2023-02-28T07:30:45.208Z,100737.97
2023-02-28T07:33:15.242Z,100729.72
2023-02-28T07:35:42.699Z,100741.38
2023-02-28T07:38:09.755Z,100732.41
2023-02-28T07:40:37.329Z,100738.22
2023-02-28T07:43:04.613Z,100734.56
2023-02-28T07:45:35.382Z,100746.66
2023-02-28T07:48:02.918Z,100750.81
2023-02-28T07:50:31.869Z,100752.38
2023-02-28T07:52:59.452Z,100740.91
2023-02-28T07:55:26.670Z,100749.38
2023-02-28T07:57:53.653Z,100748.91
2023-02-28T08:00:35.911Z,100747.88
2023-02-28T08:03:03.549Z,100746.50
2023-02-28T08:05:32.942Z,100752.28
2023-02-28T08:08:02.356Z,100747.97
2023-02-28T08:10:29.322Z,100752.22
2023-02-28T08:12:56.504Z,100753.31
2023-02-28T08:15:23.390Z,100759.88
2023-02-28T08:17:50.589Z,100756.59
2023-02-28T08:20:17.475Z,100755.06
2023-02-28T08:22:46.069Z,100758.00
2023-02-28T08:25:13.208Z,100759.88
2023-02-28T08:27:40.496Z,100764.06
2023-02-28T08:30:07.755Z,100765.94
2023-02-28T08:32:35.021Z,100767.16
2023-02-28T08:35:02.919Z,100769.63
2023-02-28T08:37:30.498Z,100769.81
2023-02-28T08:39:57.501Z,100774.13
2023-02-28T08:42:24.970Z,100778.84
2023-02-28T08:44:52.056Z,100779.84
2023-02-28T08:47:19.517Z,100775.88
2023-02-28T08:49:46.535Z,100778.34
2023-02-28T08:52:14.001Z,100785.63
2023-02-28T08:54:40.979Z,100789.56
2023-02-28T08:57:08.264Z,100780.06
2023-02-28T08:59:35.186Z,100784.56
2023-02-28T09:02:04.761Z,100781.38
2023-02-28T09:04:32.085Z,100792.38
2023-02-28T09:06:59.362Z,100790.81
2023-02-28T09:09:27.068Z,100785.38
2023-02-28T09:11:56.314Z,100785.38
2023-02-28T09:14:23.247Z,100790.09
2023-02-28T09:16:51.077Z,100792.66
2023-02-28T09:19:18.045Z,100791.25
2023-02-28T09:21:45.288Z,100778.81
2023-02-28T09:24:14.628Z,100786.25
2023-02-28T09:26:47.254Z,100783.22
2023-02-28T09:29:18.748Z,100780.94
2023-02-28T09:31:46.378Z,100790.38
2023-02-28T09:34:13.373Z,100783.06
2023-02-28T09:36:45.824Z,100786.28
2023-02-28T09:39:13.951Z,100782.84
2023-02-28T09:41:48.599Z,100788.41
2023-02-28T09:44:19.215Z,100784.72
2023-02-28T09:46:48.906Z,100782.59
2023-02-28T09:49:20.378Z,100792.03
2023-02-28T09:51:47.599Z,100792.50
2023-02-28T09:54:19.827Z,100789.75
2023-02-28T09:56:57.217Z,100792.78
2023-02-28T09:59:42.758Z,100789.13
2023-02-28T10:02:19.049Z,100798.00
2023-02-28T10:04:55.320Z,100796.03
2023-02-28T10:07:26.397Z,100791.97
2023-02-28T10:09:56.094Z,100787.22
2023-02-28T10:12:23.511Z,100789.44
2023-02-28T10:14:52.702Z,100789.63
2023-02-28T10:17:28.412Z,100789.78
2023-02-28T10:20:20.815Z,100801.81
2023-02-28T10:23:11.063Z,100794.75
2023-02-28T10:25:38.543Z,100783.66
2023-02-28T10:28:08.978Z,100783.28
2023-02-28T10:30:37.992Z,100789.16
2023-02-28T10:33:05.369Z,100788.09
2023-02-28T10:35:34.830Z,100786.97
2023-02-28T10:38:02.601Z,100787.44
2023-02-28T10:40:34.146Z,100781.00
2023-02-28T10:43:02.970Z,100773.94
2023-02-28T10:45:32.922Z,100776.41
2023-02-28T10:48:07.067Z,100778.59
2023-02-28T10:50:52.261Z,100773.16
2023-02-28T10:53:28.420Z,100768.13
2023-02-28T10:56:07.667Z,100762.31
2023-02-28T10:58:50.348Z,100751.50
2023-02-28T11:01:24.814Z,100761.72
2023-02-28T11:03:52.950Z,100756.22
2023-02-28T11:06:22.142Z,100747.97
2023-02-28T11:08:51.495Z,100755.78
2023-02-28T11:11:18.831Z,100747.06
2023-02-28T11:13:47.524Z,100742.03
2023-02-28T11:16:15.403Z,100744.59
2023-02-28T11:18:55.780Z,100738.13
2023-02-28T11:21:28.563Z,100736.09
2023-02-28T11:24:02.180Z,100736.16
2023-02-28T11:26:36.949Z,100726.31
2023-02-28T11:29:13.101Z,100728.16
2023-02-28T11:31:40.088Z,100715.72
2023-02-28T11:34:23.994Z,100721.19
2023-02-28T11:36:50.883Z,100715.53
2023-02-28T11:39:18.552Z,100718.59
2023-02-28T11:41:59.795Z,100708.69
2023-02-28T11:44:30.065Z,100710.63
2023-02-28T11:47:09.110Z,100703.69
2023-02-28T11:49:47.459Z,100707.84
2023-02-28T11:52:30.368Z,100697.19
2023-02-28T11:55:06.198Z,100706.53
2023-02-28T11:57:52.552Z,100697.59
2023-02-28T12:00:31.993Z,100693.72
2023-02-28T12:03:11.151Z,100699.94
2023-02-28T12:05:47.057Z,100696.84
2023-02-28T12:08:23.931Z,100700.66
2023-02-28T12:11:06.923Z,100694.44
2023-02-28T12:13:48.255Z,100679.28
2023-02-28T12:16:31.818Z,100679.09
2023-02-28T12:18:58.724Z,100684.16
2023-02-28T12:21:25.859Z,100685.06
2023-02-28T12:24:08.552Z,100675.09
2023-02-28T12:26:49.432Z,100671.78
2023-02-28T12:29:16.664Z,100668.66
2023-02-28T12:31:50.825Z,100675.25
2023-02-28T12:34:21.619Z,100667.56
2023-02-28T12:36:50.401Z,100667.31
2023-02-28T12:39:24.818Z,100665.75
2023-02-28T12:42:04.419Z,100660.13
2023-02-28T12:44:31.277Z,100655.50
2023-02-28T12:47:01.607Z,100657.25
2023-02-28T12:49:40.528Z,100657.38
2023-02-28T12:52:12.075Z,100661.25
2023-02-28T12:54:53.017Z,100666.47
2023-02-28T12:57:26.872Z,100650.81
2023-02-28T12:59:57.272Z,100652.63
2023-02-28T13:02:24.429Z,100655.34
2023-02-28T13:05:10.619Z,100654.28
2023-02-28T13:07:56.769Z,100647.94
2023-02-28T13:10:26.296Z,100645.38
2023-02-28T13:12:54.913Z,100645.78
2023-02-28T13:15:31.551Z,100639.91
2023-02-28T13:18:04.179Z,100642.50
2023-02-28T13:20:47.817Z,100644.72
2023-02-28T13:23:36.132Z,100635.44
2023-02-28T13:26:04.086Z,100647.22
2023-02-28T13:28:49.588Z,100647.63
2023-02-28T13:31:19.697Z,100637.81
2023-02-28T13:33:50.623Z,100643.16
2023-02-28T13:36:20.564Z,100634.75
2023-02-28T13:38:53.561Z,100642.44
2023-02-28T13:41:32.834Z,100646.06
2023-02-28T13:44:07.018Z,100650.78
2023-02-28T13:46:37.300Z,100641.09
2023-02-28T13:49:22.208Z,100642.41
2023-02-28T13:51:50.797Z,100641.28
2023-02-28T13:54:36.853Z,100632.31
2023-02-28T13:57:21.857Z,100634.94
2023-02-28T13:59:49.006Z,100641.72
2023-02-28T14:02:44.925Z,100641.66
2023-02-28T14:05:35.882Z,100640.16
2023-02-28T14:08:22.096Z,100633.88
2023-02-28T14:10:51.312Z,100635.13
2023-02-28T14:13:44.577Z,100631.00
2023-02-28T14:17:35.587Z,100635.09
2023-02-28T14:20:04.278Z,100624.25
2023-02-28T14:22:46.852Z,100628.06
2023-02-28T14:29:02.688Z,100622.50
2023-02-28T14:31:35.716Z,100617.47
2023-02-28T14:34:38.049Z,100624.09
2023-02-28T14:37:05.813Z,100624.31
2023-02-28T14:39:33.841Z,100617.75
2023-02-28T14:42:05.689Z,100620.38
2023-02-28T14:44:32.988Z,100609.72
2023-02-28T14:47:06.761Z,100610.97
2023-02-28T14:49:36.861Z,100609.81
2023-02-28T14:52:07.852Z,100615.66
2023-02-28T14:54:37.667Z,100608.38
2023-02-28T14:57:04.967Z,100613.72
2023-02-28T14:59:35.872Z,100613.41
2023-02-28T15:02:18.370Z,100609.94
2023-02-28T15:04:53.620Z,100602.91
2023-02-28T15:07:20.989Z,100602.75
2023-02-28T15:09:47.927Z,100608.22
2023-02-28T15:12:16.229Z,100614.50
2023-02-28T15:14:48.802Z,100627.31
2023-02-28T15:17:23.481Z,100621.25
2023-02-28T15:19:53.086Z,100622.13
2023-02-28T15:22:24.698Z,100620.00
2023-02-28T15:24:53.188Z,100621.81
2023-02-28T15:27:29.437Z,100627.47
2023-02-28T15:29:57.972Z,100624.44
2023-02-28T15:32:25.222Z,100617.28
2023-02-28T15:34:52.389Z,100623.38
2023-02-28T15:37:38.319Z,100626.59
2023-02-28T15:40:11.618Z,100619.75
2023-02-28T15:42:39.296Z,100625.25
2023-02-28T15:45:06.498Z,100620.97
2023-02-28T15:47:34.242Z,100611.69
2023-02-28T15:50:09.663Z,100614.88
2023-02-28T15:52:42.546Z,100616.41
2023-02-28T15:55:18.860Z,100614.56
2023-02-28T15:57:49.676Z,100618.84
2023-02-28T16:00:20.208Z,100616.09
2023-02-28T16:02:47.856Z,100619.31
2023-02-28T16:05:15.125Z,100614.75
2023-02-28T16:07:44.188Z,100620.66
2023-02-28T16:10:15.185Z,100622.31
2023-02-28T16:12:43.032Z,100611.03
2023-02-28T16:15:18.047Z,100613.91
2023-02-28T16:17:46.197Z,100613.59
2023-02-28T16:20:14.718Z,100619.97
2023-02-28T16:22:43.061Z,100624.94
2023-02-28T16:25:17.049Z,100625.03
2023-02-28T16:27:45.247Z,100624.69
2023-02-28T16:30:23.066Z,100625.41
2023-02-28T16:32:53.977Z,100624.59
2023-02-28T16:35:21.665Z,100625.44
2023-02-28T16:37:49.507Z,100631.25
2023-02-28T16:40:21.745Z,100629.00
2023-02-28T16:42:51.477Z,100634.50
2023-02-28T16:45:22.872Z,100634.97
2023-02-28T16:47:53.567Z,100638.16
2023-02-28T16:50:22.717Z,100635.53
2023-02-28T16:52:50.824Z,100639.81
2023-02-28T16:55:20.570Z,100645.44
2023-02-28T16:57:59.898Z,100647.97
2023-02-28T17:00:30.432Z,100650.97
2023-02-28T17:02:58.469Z,100643.34
2023-02-28T17:05:25.836Z,100647.09
2023-02-28T17:07:53.817Z,100650.41
2023-02-28T17:10:22.828Z,100656.97
2023-02-28T17:12:50.580Z,100657.28
2023-02-28T17:15:19.111Z,100656.13
2023-02-28T17:17:47.566Z,100669.09
2023-02-28T17:20:16.041Z,100665.72
2023-02-28T17:22:44.115Z,100665.84
2023-02-28T17:25:11.590Z,100660.81
2023-02-28T17:27:40.315Z,100667.72
2023-02-28T17:30:15.888Z,100665.09
2023-02-28T17:32:43.436Z,100675.72
2023-02-28T17:35:10.922Z,100662.31
2023-02-28T17:37:38.559Z,100663.63
2023-02-28T17:40:06.949Z,100682.66
2023-02-28T17:42:37.022Z,100670.13
2023-02-28T17:45:06.890Z,100677.25
2023-02-28T17:47:34.914Z,100675.09
2023-02-28T17:50:05.189Z,100675.97
2023-02-28T17:52:38.059Z,100661.34
2023-02-28T17:55:08.403Z,100664.66
2023-02-28T17:57:36.949Z,100671.09
2023-02-28T18:00:08.515Z,100662.41
2023-02-28T18:02:41.222Z,100671.81
2023-02-28T18:05:09.601Z,100671.44
2023-02-28T18:07:42.263Z,100670.22
2023-02-28T18:10:20.093Z,100677.16
2023-02-28T18:13:14.371Z,100677.03
2023-02-28T18:15:43.580Z,100675.97
2023-02-28T18:18:19.450Z,100675.53
2023-02-28T18:20:51.247Z,100677.94
2023-02-28T18:23:21.526Z,100674.75
2023-02-28T18:25:58.452Z,100670.91
2023-02-28T18:28:26.624Z,100663.94
2023-02-28T18:30:54.604Z,100674.72
2023-02-28T18:33:23.044Z,100676.78
2023-02-28T18:35:58.066Z,100664.69
2023-02-28T18:38:26.527Z,100660.66
2023-02-28T18:40:56.450Z,100662.94
2023-02-28T18:43:26.873Z,100656.16
2023-02-28T18:45:54.614Z,100658.13
2023-02-28T18:48:23.967Z,100664.13
2023-02-28T18:50:53.694Z,100660.72
2023-02-28T18:53:25.035Z,100656.78
2023-02-28T18:55:54.109Z,100662.13
2023-02-28T18:58:22.190Z,100659.63
2023-02-28T19:00:52.421Z,100662.97
2023-02-28T19:03:20.561Z,100669.50
2023-02-28T19:05:50.048Z,100659.88
2023-02-28T19:08:18.276Z,100656.88
2023-02-28T19:10:51.745Z,100661.78
2023-02-28T19:13:21.351Z,100668.19
2023-02-28T19:16:06.071Z,100663.03
2023-02-28T19:18:38.527Z,100667.03
2023-02-28T19:21:12.836Z,100670.34
2023-02-28T19:23:57.855Z,100664.97
2023-02-28T19:26:28.192Z,100670.28
2023-02-28T19:29:03.052Z,100670.78
2023-02-28T19:31:34.341Z,100677.28
2023-02-28T19:34:07.628Z,100676.34
2023-02-28T19:36:36.286Z,100677.72
2023-02-28T19:39:05.838Z,100673.22
2023-02-28T19:41:33.778Z,100675.69
2023-02-28T19:44:02.456Z,100671.50
2023-02-28T19:46:30.573Z,100675.06
2023-02-28T19:48:59.343Z,100679.75
2023-02-28T19:51:28.506Z,100682.97
2023-02-28T19:53:57.539Z,100679.97
2023-02-28T19:56:28.717Z,100678.53
2023-02-28T19:58:58.103Z,100683.28
2023-02-28T20:01:26.828Z,100677.41
2023-02-28T20:04:04.893Z,100686.16
2023-02-28T20:06:33.496Z,100685.59
2023-02-28T20:09:02.311Z,100686.41
2023-02-28T20:11:30.563Z,100676.38
2023-02-28T20:13:59.478Z,100680.38
2023-02-28T20:16:35.429Z,100680.16
2023-02-28T20:19:03.712Z,100677.94
2023-02-28T20:21:31.579Z,100676.03
2023-02-28T20:23:59.833Z,100676.81
2023-02-28T20:26:34.264Z,100671.09
2023-02-28T20:29:02.326Z,100671.38
2023-02-28T20:31:31.359Z,100683.25
2023-02-28T20:34:01.672Z,100679.69
2023-02-28T20:36:29.842Z,100675.25
2023-02-28T20:39:00.699Z,100674.41
2023-02-28T20:41:28.465Z,100673.78
2023-02-28T20:43:58.595Z,100684.03
2023-02-28T20:46:26.431Z,100667.44
2023-02-28T20:48:54.627Z,100669.53
2023-02-28T20:51:22.469Z,100666.53
2023-02-28T20:53:56.741Z,100670.50
2023-02-28T20:56:24.071Z,100670.22
2023-02-28T20:58:53.666Z,100663.69
2023-02-28T21:01:26.820Z,100658.97
2023-02-28T21:04:01.852Z,100657.47
2023-02-28T21:06:32.220Z,100654.47
2023-02-28T21:09:00.327Z,100656.88
2023-02-28T21:11:28.771Z,100657.72
2023-02-28T21:13:56.524Z,100659.34
2023-02-28T21:16:25.529Z,100663.66
2023-02-28T21:18:53.243Z,100662.50
2023-02-28T21:21:21.872Z,100652.47
2023-02-28T21:23:49.752Z,100655.56
2023-02-28T21:26:19.224Z,100650.06
2023-02-28T21:28:55.122Z,100658.97
2023-02-28T21:31:23.816Z,100650.13
2023-02-28T21:33:55.121Z,100645.88
2023-02-28T21:36:27.213Z,100646.69
2023-02-28T21:38:56.441Z,100648.53
2023-02-28T21:41:24.486Z,100645.09
2023-02-28T21:43:54.798Z,100643.63
2023-02-28T21:46:23.205Z,100635.47
2023-02-28T21:48:51.058Z,100644.03
2023-02-28T21:51:20.356Z,100641.81
2023-02-28T21:53:48.456Z,100648.44
2023-02-28T21:56:16.856Z,100651.09
2023-02-28T21:58:44.067Z,100645.31
2023-02-28T22:01:15.620Z,100649.19
2023-02-28T22:03:44.053Z,100643.28
2023-02-28T22:06:17.032Z,100639.03
2023-02-28T22:08:45.525Z,100648.78
2023-02-28T22:11:13.593Z,100651.97
2023-02-28T22:13:43.543Z,100650.78
2023-02-28T22:16:12.011Z,100647.31
2023-02-28T22:18:40.156Z,100650.84
2023-02-28T22:21:07.418Z,100664.50
2023-02-28T22:23:35.690Z,100659.84
2023-02-28T22:26:03.698Z,100659.47
2023-02-28T22:28:33.985Z,100666.84
2023-02-28T22:31:01.593Z,100656.00
2023-02-28T22:33:28.930Z,100658.00
2023-02-28T22:35:55.830Z,100658.00
2023-02-28T22:38:23.080Z,100657.88
2023-02-28T22:40:49.932Z,100657.59
2023-02-28T22:43:17.124Z,100650.84
2023-02-28T22:45:46.458Z,100653.44
2023-02-28T22:48:13.676Z,100653.88
2023-02-28T22:50:40.570Z,100651.78
2023-02-28T22:53:07.849Z,100656.09
2023-02-28T22:55:34.695Z,100658.34
2023-02-28T22:58:04.292Z,100658.75
2023-02-28T23:00:31.161Z,100655.69
2023-02-28T23:02:58.474Z,100656.59
2023-02-28T23:05:27.565Z,100657.06
2023-02-28T23:07:54.930Z,100652.09
2023-02-28T23:10:21.871Z,100652.84
2023-02-28T23:12:52.243Z,100644.81
2023-02-28T23:15:21.703Z,100644.81
2023-02-28T23:17:49.655Z,100652.50
2023-02-28T23:20:18.370Z,100643.59
2023-02-28T23:22:50.635Z,100650.63
2023-02-28T23:25:18.213Z,100652.16
2023-02-28T23:27:45.603Z,100648.69
2023-02-28T23:30:13.071Z,100655.69
2023-02-28T23:32:40.625Z,100647.59
2023-02-28T23:35:08.213Z,100659.13
2023-02-28T23:37:36.416Z,100650.97
2023-02-28T23:40:04.224Z,100656.94
2023-02-28T23:42:33.736Z,100654.22
2023-02-28T23:45:01.119Z,100654.16
2023-02-28T23:47:28.552Z,100649.78
2023-02-28T23:49:55.438Z,100648.91
2023-02-28T23:52:22.658Z,100644.28
2023-02-28T23:54:49.520Z,100651.69
2023-02-28T23:57:16.767Z,100647.47
2023-02-28T23:59:46.273Z,100648.38
